Inicio METAR Ruta Wind Satelite

Informe Meteorológico

Fecha: 2020/07/13 03:57:18 Local
2020.07.13 08:57 UTC


Estado: VENCIDO
Operación:VFR
Quibdo / El Carano, Colombia (SKUI) 05-43N 076-37W
2020.07.13 0000 UTC
Wind: Calm:0
Visibility: greater than 7 mile(s):0
Sky conditions: mostly clear
Temperature: 80 F (27 C)
Dew Point: 75 F (24 C)
Relative Humidity: 83%
Pressure (altimeter): 29.78 in. Hg (1008 hPa)
ob: SKUI 130000Z 00000KT 9999 FEW030 27/24 A2978
cycle: 0

SKUI 122300Z 01007KT 9999 SCT030 29/23 A2976
SKUI 122200Z 00000KT 9999 SCT030 SCT080 30/23 A2976
SKUI 122100Z 00000KT 9999 SCT025 30/23 A2976 METAR
SKUI 122000Z 00000KT 9999 SCT025 SCT200 30/22 A2978 METAR
SKUI 121900Z 34007KT 9999 SCT025 SCT090 30/22 A2980